Tionesta, Pennsylvania
Current Conditions -  °F | °C
As of 7:35 PM on Friday 21 Nov 2014 (Local Time) from KFKL Reporting Station
Clear Clear  
Wind Chill: 18°   Ceiling: Unl
Heat Index: 18°   Visibility: 10mi
Dew Point:   Wind: 3mph
Humidity: 63%   Direction: 210°SSW
Pressure: 30.44"   Gusts: NA
Location:  41.5°N, 79.46°W
Report Text: KFKL 220035Z AUTO 21003KT 10SM CLR M08/M14 A3044 RMK AO1
Loading
Personal Weather Stations






























Interactive Weather Map New forecast layout! Learn more

10-Day Weather Forecast

Advertisements
Track Severe Weather on mobile